Daily Reports
[Refresh to Update]

Barometric Pressure Shown is Corrected to Site Pressure


Today's History

12/15/18
Time         Wind Dir   Wind Spd  Wind Gust   Humidity       Temp   Tot Rain   Barom SL   24HrRain   RainRate  MonthRain
                            mph        mph          %         F         in         in         in      in/hr         in
12:00am            25       12.0       12.0       89.0       42.4      30.02      28.90       0.00      0.000       0.65
12:20am            38        6.0       10.0       90.0       42.3      30.02      28.88       0.00      0.000       0.65
12:30am            41        7.0        9.0       90.0       42.3      30.02      28.88       0.00      0.000       0.65
12:40am            36        6.0        6.0       90.0       42.3      30.02      28.88       0.00      0.000       0.65
12:50am            32       11.0       12.0       90.0       42.2      30.02      28.87       0.00      0.000       0.65
1:00am             42        7.0       11.0       91.0       42.0      30.02      28.85       0.00      0.000       0.65
1:10am             27        4.0        5.0       91.0       42.0      30.02      28.89       0.00      0.000       0.65
1:20am             38        3.0        4.0       91.0       41.9      30.02      28.91       0.00      0.000       0.65
1:30am             39        5.0        5.0       91.0       42.0      30.02      28.90       0.00      0.000       0.65
1:40am             31        9.0        9.0       91.0       42.0      30.02      28.90       0.00      0.000       0.65
1:50am             28        4.0        8.0       91.0       42.1      30.02      28.89       0.00      0.000       0.65
2:00am              9        9.0       10.0       90.0       42.1      30.02      28.90       0.00      0.000       0.65
2:10am            351       11.0       11.0       91.0       42.0      30.02      28.92       0.00      0.000       0.65
2:20am            355        6.0        8.0       91.0       41.6      30.02      28.94       0.00      0.000       0.65
2:30am              5        6.0        6.0       91.0       41.6      30.02      28.93       0.00      0.000       0.65
2:40am             23        8.0       10.0       91.0       42.0      30.02      28.93       0.00      0.000       0.65
2:50am             32        8.0       10.0       91.0       42.2      30.02      28.92       0.00      0.000       0.65
3:00am             34        6.0        8.0       90.0       42.4      30.02      28.92       0.00      0.000       0.65
3:10am             40        5.0        9.0       90.0       42.3      30.02      28.92       0.00      0.000       0.65
3:20am             34        6.0        6.0       90.0       42.4      30.02      28.91       0.00      0.000       0.65
3:30am             30        9.0        9.0       90.0       42.4      30.02      28.90       0.00      0.000       0.65
3:40am             42        9.0        9.0       90.0       42.3      30.02      28.90       0.00      0.000       0.65
3:50am             48        4.0        9.0       90.0       42.2      30.02      28.89       0.00      0.000       0.65
4:00am             43        2.0        5.0       90.0       42.2      30.02      28.89       0.00      0.000       0.65
4:10am             22        5.0        9.0       90.0       42.1      30.02      28.89       0.00      0.000       0.65
4:20am             24       12.0       12.0       90.0       41.9      30.02      28.89       0.00      0.000       0.65
4:30am             24       10.0       12.0       91.0       41.5      30.02      28.88       0.00      0.000       0.65
4:40am             16       12.0       13.0       92.0       41.1      30.02      28.87       0.00      0.000       0.65
4:50am             44       13.0       13.0       93.0       40.6      30.02      28.85       0.00      0.000       0.65
5:00am             44        6.0       10.0       93.0       40.6      30.02      28.84       0.00      0.000       0.65
5:10am             59       10.0       12.0       92.0       41.2      30.02      28.84       0.00      0.000       0.65
5:20am             15        7.0       11.0       90.0       42.0      30.02      28.84       0.00      0.000       0.65

 


Yesterday's History

12/14/18
Time         Wind Dir   Wind Spd  Wind Gust   Humidity       Temp   Tot Rain   Barom SL   24HrRain   RainRate  MonthRain
                            mph        mph          %         F         in         in         in      in/hr         in
12:00am           187        7.0        7.0       85.0       41.1      30.02      29.00       0.00      0.000       0.65
12:10am           194        6.0        7.0       84.0       41.3      30.02      28.99       0.00      0.000       0.65
12:20am           191        9.0        9.0       85.0       41.2      30.02      29.00       0.00      0.000       0.65
12:30am           180        6.0        6.0       84.0       41.1      30.02      29.00       0.00      0.000       0.65
12:40am           175        6.0        6.0       85.0       40.5      30.02      29.00       0.00      0.000       0.65
12:50am           175        6.0        6.0       85.0       40.5      30.02      28.99       0.00      0.000       0.65
1:00am            170        8.0        8.0       85.0       40.5      30.02      28.98       0.00      0.000       0.65
1:10am            166        7.0       10.0       86.0       40.2      30.02      28.98       0.00      0.000       0.65
1:20am            173        9.0        9.0       86.0       40.4      30.02      28.98       0.00      0.000       0.65
1:30am            179        5.0        7.0       86.0       40.4      30.02      28.98       0.00      0.000       0.65
1:40am            178        5.0        7.0       86.0       40.4      30.02      28.98       0.00      0.000       0.65
1:50am            189        6.0        7.0       86.0       40.5      30.02      28.98       0.00      0.000       0.65
2:00am            188        5.0        6.0       86.0       40.5      30.02      28.99       0.00      0.000       0.65
2:10am            194        5.0        6.0       86.0       40.5      30.02      29.00       0.00      0.000       0.65
2:20am            194        4.0        6.0       86.0       40.5      30.02      29.00       0.00      0.000       0.65
2:30am            189        4.0        5.0       86.0       40.3      30.02      29.00       0.00      0.000       0.65
2:40am            186        5.0        5.0       87.0       39.9      30.02      29.00       0.00      0.000       0.65
2:50am            186        4.0        5.0       87.0       39.7      30.02      29.00       0.00      0.000       0.65
3:00am            186        4.0        6.0       87.0       39.9      30.02      29.00       0.00      0.000       0.65
3:10am            185        6.0        7.0       86.0       40.3      30.02      29.00       0.00      0.000       0.65
3:20am            185        5.0        5.0       86.0       40.1      30.02      28.99       0.00      0.000       0.65
3:30am            185        2.0        2.0       87.0       39.6      30.02      28.99       0.00      0.000       0.65
3:40am            185        2.0        3.0       88.0       39.3      30.02      28.99       0.00      0.000       0.65
3:50am            185        2.0        2.0       88.0       39.1      30.02      28.99       0.00      0.000       0.65
4:00am            185        2.0        2.0       88.0       38.8      30.02      28.99       0.00      0.000       0.65
4:10am            185        2.0        2.0       89.0       38.6      30.02      28.99       0.00      0.000       0.65
4:20am            185        2.0        3.0       88.0       38.3      30.02      28.98       0.00      0.000       0.65
4:30am            185        3.0        3.0       90.0       38.4      30.02      28.98       0.00      0.000       0.65
4:40am            185        2.0        2.0       89.0       38.4      30.02      28.98       0.00      0.000       0.65
4:50am            185        2.0        3.0       89.0       38.0      30.02      28.98       0.00      0.000       0.65
5:00am            227        1.0        2.0       88.0       36.8      30.02      28.98       0.00      0.000       0.65
5:10am            194        3.0        4.0       90.0       36.3      30.02      28.98       0.00      0.000       0.65
5:20am            239        4.0        5.0       92.0       36.4      30.02      28.99       0.00      0.000       0.65
5:30am            239        2.0        2.0       92.0       37.5      30.02      28.97       0.00      0.000       0.65
5:40am            211        4.0        5.0       90.0       37.8      30.02      28.97       0.00      0.000       0.65
5:50am            211        4.0        5.0       90.0       37.3      30.02      28.98       0.00      0.000       0.65
6:00am            212        3.0        4.0       92.0       37.5      30.02      28.99       0.00      0.000       0.65
6:10am            209        4.0        4.0       90.0       38.3      30.02      28.99       0.00      0.000       0.65
6:20am            201        4.0        6.0       89.0       38.0      30.02      29.00       0.00      0.000       0.65
6:30am            201        3.0        4.0       90.0       37.9      30.02      29.00       0.00      0.000       0.65
6:40am            201        2.0        3.0       90.0       38.0      30.02      29.00       0.00      0.000       0.65
6:50am            201        5.0        6.0       91.0       38.2      30.02      29.00       0.00      0.000       0.65
7:00am            192        5.0        6.0       90.0       38.2      30.02      29.00       0.00      0.000       0.65
7:10am            194        5.0        7.0       90.0       38.5      30.02      29.01       0.00      0.000       0.65
7:20am            194        3.0        4.0       89.0       39.0      30.02      29.01       0.00      0.000       0.65
7:30am            194        1.0        2.0       89.0       39.0      30.02      29.01       0.00      0.000       0.65
7:40am            194        2.0        3.0       88.0       38.8      30.02      29.01       0.00      0.000       0.65
7:50am            194        1.0        2.0       89.0       38.5      30.02      29.01       0.00      0.000       0.65
8:00am            194        2.0        3.0       89.0       38.5      30.02      29.01       0.00      0.000       0.65
8:10am            194        3.0        4.0       89.0       38.3      30.02      29.01       0.00      0.000       0.65
8:20am            194        3.0        4.0       90.0       38.1      30.02      29.01       0.00      0.000       0.65
8:30am            194        4.0        4.0       90.0       38.3      30.02      29.01       0.00      0.000       0.65
8:40am            194        2.0        4.0       90.0       38.2      30.02      29.02       0.00      0.000       0.65
8:50am            194        2.0        3.0       91.0       38.3      30.02      29.02       0.00      0.000       0.65
9:00am            194        2.0        3.0       90.0       39.1      30.02      29.02       0.00      0.000       0.65
9:10am            194        4.0        5.0       89.0       39.3      30.02      29.02       0.00      0.000       0.65
9:20am            194        4.0        5.0       89.0       39.8      30.02      29.02       0.00      0.000       0.65
9:30am            194        5.0        5.0       88.0       40.3      30.02      29.02       0.00      0.000       0.65
9:40am            194        3.0        4.0       86.0       41.0      30.02      29.03       0.00      0.000       0.65
9:50am            194        5.0        5.0       85.0       42.0      30.02      29.03       0.00      0.000       0.65
10:00am           194        0.0        1.0       84.0       42.7      30.02      29.03       0.00      0.000       0.65
10:10am           194        2.0        2.0       83.0       43.4      30.02      29.03       0.00      0.000       0.65
10:20am           194        1.0        4.0       80.0       43.8      30.02      29.03       0.00      0.000       0.65
10:30am           194        0.0        0.0       80.0       45.2      30.02      29.03       0.00      0.000       0.65
10:40am           194        2.0        3.0       75.0       47.7      30.02      29.02       0.00      0.000       0.65
10:50am           194        2.0        4.0       73.0       47.7      30.02      29.02       0.00      0.000       0.65
11:00am           194        1.0        1.0       71.0       48.2      30.02      29.01       0.00      0.000       0.65
11:10am           194        3.0        3.0       72.0       48.0      30.02      29.00       0.00      0.000       0.65
11:20am           194        1.0        2.0       75.0       48.2      30.02      29.00       0.00      0.000       0.65
11:30am           194        0.0        1.0       75.0       48.8      30.02      29.00       0.00      0.000       0.65
11:40am           194        5.0        6.0       67.0       50.1      30.02      28.99       0.00      0.000       0.65
11:50am           194        3.0        4.0       66.0       50.1      30.02      28.99       0.00      0.000       0.65
12:00pm           194        3.0        3.0       66.0       49.9      30.02      28.98       0.00      0.000       0.65
12:10pm           194        2.0        2.0       67.0       50.3      30.02      28.98       0.00      0.000       0.65
12:20pm           194        3.0        3.0       66.0       50.6      30.02      28.98       0.00      0.000       0.65
12:30pm           194        3.0        3.0       65.0       50.6      30.02      28.98       0.00      0.000       0.65
12:40pm           194        3.0        3.0       64.0       50.7      30.02      28.98       0.00      0.000       0.65
12:50pm           194        1.0        2.0       65.0       50.9      30.02      28.97       0.00      0.000       0.65
1:00pm            194        3.0        3.0       65.0       50.9      30.02      28.98       0.00      0.000       0.65
1:10pm            194        4.0        5.0       68.0       50.8      30.02      28.98       0.00      0.000       0.65
1:20pm            194        2.0        3.0       69.0       50.6      30.02      28.97       0.00      0.000       0.65
1:30pm            194        1.0        1.0       70.0       50.5      30.02      28.97       0.00      0.000       0.65
1:40pm            194        0.0        0.0       71.0       50.7      30.02      28.96       0.00      0.000       0.65
1:50pm            194        0.0        0.0       69.0       50.9      30.02      28.96       0.00      0.000       0.65
2:00pm            194        0.0        0.0       71.0       51.3      30.02      28.95       0.00      0.000       0.65
2:10pm            194        0.0        0.0       69.0       51.3      30.02      28.95       0.00      0.000       0.65
2:20pm            194        2.0        2.0       69.0       51.6      30.02      28.95       0.00      0.000       0.65
2:30pm            194        2.0        2.0       66.0       52.1      30.02      28.95       0.00      0.000       0.65
2:40pm            194        2.0        2.0       66.0       52.2      30.02      28.95       0.00      0.000       0.65
2:50pm            194        3.0        3.0       65.0       52.4      30.02      28.94       0.00      0.000       0.65
3:00pm            194        0.0        0.0       65.0       52.2      30.02      28.95       0.00      0.000       0.65
3:10pm            194        0.0        0.0       67.0       51.9      30.02      28.95       0.00      0.000       0.65
3:20pm            194        0.0        0.0       68.0       51.8      30.02      28.95       0.00      0.000       0.65
3:30pm            194        0.0        1.0       69.0       51.7      30.02      28.95       0.00      0.000       0.65
3:40pm            194        3.0        3.0       66.0       51.7      30.02      28.95       0.00      0.000       0.65
3:50pm            194        0.0        1.0       65.0       51.5      30.02      28.95       0.00      0.000       0.65
4:00pm            194        2.0        2.0       67.0       51.5      30.02      28.95       0.00      0.000       0.65
4:10pm            194        3.0        4.0       70.0       50.8      30.02      28.95       0.00      0.000       0.65
4:20pm            194        2.0        3.0       69.0       50.2      30.02      28.95       0.00      0.000       0.65
4:30pm            194        3.0        3.0       68.0       50.5      30.02      28.95       0.00      0.000       0.65
4:40pm            153        3.0        3.0       70.0       50.2      30.02      28.95       0.00      0.000       0.65
4:50pm            144        2.0        3.0       71.0       49.4      30.02      28.95       0.00      0.000       0.65
5:00pm            143        2.0        3.0       74.0       48.5      30.02      28.96       0.00      0.000       0.65
5:10pm            143        1.0        3.0       75.0       48.0      30.02      28.95       0.00      0.000       0.65
5:20pm            134        4.0        4.0       76.0       47.8      30.02      28.96       0.00      0.000       0.65
5:30pm            113        3.0        3.0       76.0       47.7      30.02      28.96       0.00      0.000       0.65
5:40pm            113        3.0        4.0       76.0       47.6      30.02      28.95       0.00      0.000       0.65
5:50pm             97        3.0        4.0       76.0       47.5      30.02      28.95       0.00      0.000       0.65
6:00pm             94        3.0        4.0       76.0       47.2      30.02      28.95       0.00      0.000       0.65
6:10pm             84        2.0        5.0       77.0       47.0      30.02      28.95       0.00      0.000       0.65
6:20pm             79        8.0        8.0       75.0       47.3      30.02      28.94       0.00      0.000       0.65
6:30pm             81        2.0        4.0       74.0       47.6      30.02      28.95       0.00      0.000       0.65
6:40pm             81        2.0        3.0       74.0       47.6      30.02      28.95       0.00      0.000       0.65
6:50pm             81        3.0        3.0       75.0       47.2      30.02      28.95       0.00      0.000       0.65
7:00pm             81        4.0        4.0       76.0       46.9      30.02      28.95       0.00      0.000       0.65
7:10pm             80        4.0        5.0       76.0       46.9      30.02      28.95       0.00      0.000       0.65
7:20pm             80        4.0        4.0       77.0       46.8      30.02      28.94       0.00      0.000       0.65
7:30pm             85        5.0        8.0       76.0       47.1      30.02      28.94       0.00      0.000       0.65
7:40pm             86        5.0        5.0       77.0       47.4      30.02      28.93       0.00      0.000       0.65
7:50pm             85        4.0        5.0       77.0       47.2      30.02      28.93       0.00      0.000       0.65
8:00pm             85        4.0        4.0       78.0       46.6      30.02      28.94       0.00      0.000       0.65
8:10pm             61        5.0        6.0       78.0       46.8      30.02      28.94       0.00      0.000       0.65
8:20pm             50        5.0        5.0       79.0       46.2      30.02      28.94       0.00      0.000       0.65
8:30pm             55        3.0        4.0       79.0       46.0      30.02      28.94       0.00      0.000       0.65
8:40pm             55        4.0        5.0       80.0       45.5      30.02      28.94       0.00      0.000       0.65
8:50pm             15        7.0        9.0       80.0       45.8      30.02      28.94       0.00      0.000       0.65
9:00pm             12        9.0       10.0       81.0       44.7      30.02      28.94       0.00      0.000       0.65
9:10pm             15       10.0       10.0       82.0       44.6      30.02      28.94       0.00      0.000       0.65
9:20pm             17       11.0       12.0       82.0       44.5      30.02      28.94       0.00      0.000       0.65
9:30pm             19        8.0       10.0       82.0       44.3      30.02      28.93       0.00      0.000       0.65
9:40pm             27       10.0       12.0       83.0       44.0      30.02      28.94       0.00      0.000       0.65
9:50pm             17       13.0       14.0       84.0       43.8      30.02      28.94       0.00      0.000       0.65
10:00pm            24        8.0        9.0       85.0       43.4      30.02      28.94       0.00      0.000       0.65
10:10pm            24       10.0       12.0       86.0       43.1      30.02      28.93       0.00      0.000       0.65
10:20pm            34        8.0        9.0       87.0       43.3      30.02      28.93       0.00      0.000       0.65
10:30pm            46        5.0        9.0       87.0       43.3      30.02      28.93       0.00      0.000       0.65
10:40pm            59        6.0        9.0       87.0       43.2      30.02      28.92       0.00      0.000       0.65
10:50pm            42       12.0       12.0       88.0       43.3      30.02      28.93       0.00      0.000       0.65
11:00pm            42        6.0        9.0       88.0       43.4      30.02      28.92       0.00      0.000       0.65
11:10pm            33        8.0       10.0       87.0       43.4      30.02      28.92       0.00      0.000       0.65
11:20pm            34       11.0       11.0       88.0       43.2      30.02      28.92       0.00      0.000       0.65
11:30pm            49        5.0       10.0       88.0       43.0      30.02      28.92       0.00      0.000       0.65
11:40pm            25        5.0        8.0       89.0       42.8      30.02      28.90       0.00      0.000       0.65
11:50pm            28       10.0       11.0       89.0       42.5      30.02      28.90       0.00      0.000       0.65


NOAA Yearly Report

                  YEARLY CLIMATOLOGICAL SUMMARY FOR 2018
                                        HEAT  COOL        
     MEAN                               DEG   DEG       WIND SPEED       DOM MEAN  MEAN
MON  TEMP  HIGH   DATE     LOW   DATE   DAYS  DAYS RAIN AVG  HI  DATE    DIR BAROM HUM
---------------------------------------------------------------------------------------
1    24.7  54.6  1/22/18  -9.5   1/2/18 1249    0  1.94   9  41  1/12/18 SSE 29.01   81
2    40.2  74.0  2/20/18   6.8   2/5/18  791    2  1.26   8  45  2/25/18   S 28.90   77
3    13.8  58.3  3/29/18  23.4  3/22/17 1475    0  1.46   4  42  3/31/18 NNW 28.79   27
4    44.6  79.2  4/13/18  20.9   4/8/18  622   10  3.42   9  49   4/4/18   N 28.85   68
5    69.2  92.1  5/28/18  40.8   5/8/18   68  193  5.07   7  43   5/4/18 WSW 28.78   70
6    71.6  92.3  6/17/18  48.1   6/6/18   24  222  7.16   6  37   6/9/18 WNW 28.72   79
7    73.0  93.4   7/1/18  53.0   7/7/18   22  268  1.75   5  34  7/20/18  NE 28.82   76
8    73.4  90.2   8/6/18  51.8  8/24/18   16  277  2.58   6  32   8/7/18  SW 28.79   81
9    69.0  91.9   9/3/18  46.7  9/29/18   66  185  3.09   5  33  9/21/18  NE 28.87   82
10   54.1  87.8  10/8/18  27.6 10/25/18  408   71  1.30   8  72 10/20/18 SSW 28.86   79
11   36.4  57.4  11/6/18  18.2 11/14/18  859    0  3.54   8  40  11/6/18 WNW 28.90   85
12   32.4  61.6  12/2/18  14.9  12/9/18  463    0  0.65   7  34  12/1/18   S 28.95   85
---------------------------------------------------------------------------------------
TOT  54.7  93.4   7/1/18  -9.5   1/2/18 6063 1228 30.02   7  72 10/20/18 SSW 28.86   73

HEAT BASE: 65.0
COOL BASE: 65.0


NOAA Monthly Report

                  MONTHLY CLIMATOLOGICAL SUMMARY FOR 12/2018
                                        HEAT  COOL        
     MEAN                               DEG   DEG       WIND SPEED       DOM MEAN  MEAN
DAY  TEMP  HIGH   TIME     LOW   TIME   DAYS  DAYS RAIN AVG  HI  TIME    DIR BAROM HUM
---------------------------------------------------------------------------------------
1    42.2  51.7   8:26pm  35.6  12:00am   23    0  0.55  10  34   7:19pm ESE 28.62   97
2    51.7  61.6   2:40pm  41.8  11:18pm   13    0  0.01  14  33   7:16pm SSW 28.32   80
3    37.1  42.3  12:00am  32.5  10:25pm   28    0  0.04  11  30  12:52am   W 28.68   90
4    30.5  32.7  12:00am  28.8   8:09pm   35    0  0.00   5  17  12:11am NNE 28.96   92
5    28.2  30.8  12:03pm  26.5  10:38pm   37    0  0.00   8  25   7:27pm   W 28.99   87
6    29.9  34.4  12:24pm  24.1  11:59pm   35    0  0.01  10  26  12:06pm  SW 29.07   85
7    23.6  30.6  12:43pm  17.6   7:44am   41    0  0.03   5  15   1:33pm  NW 29.30   81
8    21.5  25.8   2:36pm  15.6   8:19am   43    0  0.00   5  24   3:11am   E 29.40   78
9    22.7  34.7   3:00pm  14.9   8:11am   42    0  0.00   5  14  11:34am   N 29.17   81
10   22.3  25.0   2:40pm  18.6   5:05am   43    0  0.00   5  13  11:34pm   N 29.09   90
11   27.4  39.8   2:47pm  17.6   7:14am   38    0  0.01   7  25   2:20pm WSW 28.97   82
12   33.5  42.9   2:45pm  23.8   3:13am   32    0  0.00   7  24  11:23am   S 28.83   82
13   37.1  44.7   4:18pm  25.6   5:00am   28    0  0.00   5  14   8:58pm   S 28.97   87
14   44.2  52.4   2:48pm  36.1   5:12am   21    0  0.00   4  16  11:56pm SSW 28.97   80
15   42.0  42.5  12:00am  40.5   4:52am    5    0  0.00   7  19   4:41am NNE 28.90   91
---------------------------------------------------------------------------------------
TOT  32.4  61.6  12/2/18  14.9  12/9/18  463    0  0.65   7  34  12/1/18   S 28.95   85

HEAT BASE: 65.0
COOL BASE: 65.0